createdAt,value
2023-05-08T00:00:14.312Z,99.2357
2023-05-08T00:01:14.339Z,99.2298
2023-05-08T00:02:14.974Z,99.2298
2023-05-08T00:03:15.472Z,99.2277
2023-05-08T00:04:16.506Z,99.2329
2023-05-08T00:06:17.484Z,99.2518
2023-05-08T00:07:18.249Z,99.2598
2023-05-08T00:08:19.736Z,99.2655
2023-05-08T00:09:20.251Z,99.2287
2023-05-08T00:10:20.982Z,99.2012
2023-05-08T00:11:22.212Z,99.1861
2023-05-08T00:16:05.150Z,99.2011
2023-05-08T00:17:05.309Z,99.2105
2023-05-08T00:18:06.824Z,99.2135
2023-05-08T00:19:07.911Z,99.2240
2023-05-08T00:20:09.036Z,99.2296
2023-05-08T00:21:09.164Z,99.2403
2023-05-08T00:22:09.886Z,99.2208
2023-05-08T00:23:10.998Z,99.2006
2023-05-08T00:24:12.323Z,99.1645
2023-05-08T00:25:12.578Z,99.1134
2023-05-08T00:26:13.711Z,99.0768
2023-05-08T00:27:14.239Z,99.0632
2023-05-08T00:28:15.135Z,99.0747
2023-05-08T00:29:15.195Z,99.0956
2023-05-08T00:30:16.907Z,99.1225
2023-05-08T00:31:16.634Z,99.1573
2023-05-08T00:32:16.965Z,99.1909
2023-05-08T00:33:18.909Z,99.2037
2023-05-08T00:36:43.723Z,99.3192
2023-05-08T00:37:43.811Z,99.3360
2023-05-08T00:38:44.649Z,99.3729
2023-05-08T00:39:45.484Z,99.3988
2023-05-08T00:40:46.168Z,99.4220
2023-05-08T00:41:47.112Z,99.4411
2023-05-08T00:42:48.228Z,99.4587
2023-05-08T00:43:49.022Z,99.4714
2023-05-08T00:44:50.799Z,99.4952
2023-05-08T00:45:51.731Z,99.5166
2023-05-08T00:46:52.708Z,99.5362
2023-05-08T00:47:53.710Z,99.5592
2023-05-08T00:48:54.390Z,99.5811
2023-05-08T00:49:56.387Z,99.6060
2023-05-08T00:51:01.915Z,99.6301
2023-05-08T00:51:59.208Z,99.6511
2023-05-08T00:53:00.021Z,99.6710
2023-05-08T00:54:01.225Z,99.6898
2023-05-08T00:55:02.414Z,99.7112
2023-05-08T00:56:03.751Z,99.7244
2023-05-08T00:57:05.133Z,99.7437
2023-05-08T00:58:06.000Z,99.7557
2023-05-08T00:59:07.289Z,99.7671
2023-05-08T01:00:08.222Z,99.7807
2023-05-08T01:01:09.574Z,99.7933
2023-05-08T01:02:11.344Z,99.8073
2023-05-08T01:04:12.747Z,99.8383
2023-05-08T01:05:12.998Z,99.8482
2023-05-08T01:08:03.853Z,99.8858
2023-05-08T01:09:04.477Z,99.9144
2023-05-08T01:10:04.561Z,99.9285
2023-05-08T01:11:06.145Z,99.9378
2023-05-08T01:12:06.110Z,99.9555
2023-05-08T01:13:06.213Z,99.9671
2023-05-08T01:14:06.814Z,99.9763
2023-05-08T01:15:08.435Z,99.9903
2023-05-08T01:16:09.473Z,99.9928
2023-05-08T01:17:09.826Z,99.9931
2023-05-08T01:18:09.847Z,99.9977
2023-05-08T01:19:10.870Z,99.9991
2023-05-08T01:20:12.159Z,99.9993
2023-05-08T01:21:12.213Z,100.0000
2023-05-08T01:22:12.641Z,100.0000
2023-05-08T01:23:14.132Z,100.0000
2023-05-08T01:24:15.012Z,100.0000
2023-05-08T01:25:16.011Z,100.0000
2023-05-08T01:26:16.391Z,100.0000
2023-05-08T01:27:17.393Z,100.0000
2023-05-08T01:28:17.515Z,100.0000
2023-05-08T01:29:18.989Z,100.0000
2023-05-08T01:30:19.133Z,100.0000
2023-05-08T01:32:19.057Z,100.0000
2023-05-08T01:33:20.486Z,100.0000
2023-05-08T01:36:21.619Z,100.0000
2023-05-08T01:37:22.282Z,100.0000
2023-05-08T01:38:22.631Z,100.0000
2023-05-08T01:39:23.549Z,100.0000
2023-05-08T01:40:24.098Z,100.0000
2023-05-08T01:41:25.608Z,100.0000
2023-05-08T01:42:26.365Z,100.0000
2023-05-08T01:43:27.434Z,100.0000
2023-05-08T01:44:28.507Z,100.0000
2023-05-08T01:45:29.588Z,100.0000
2023-05-08T01:46:30.702Z,100.0000
2023-05-08T01:51:02.068Z,100.0000
2023-05-08T01:52:02.103Z,100.0000
2023-05-08T01:53:03.190Z,100.0000
2023-05-08T01:55:04.653Z,100.0000
2023-05-08T01:56:04.738Z,100.0000
2023-05-08T01:57:06.068Z,100.0000
2023-05-08T01:58:06.789Z,100.0000
2023-05-08T01:59:06.793Z,100.0000
2023-05-08T02:00:07.974Z,100.0000
2023-05-08T02:02:08.391Z,100.0000
2023-05-08T02:03:08.762Z,100.0000
2023-05-08T02:04:10.331Z,100.0000
2023-05-08T02:06:10.886Z,100.0000
2023-05-08T02:07:11.370Z,100.0000
2023-05-08T02:08:12.668Z,100.0000
2023-05-08T02:09:13.177Z,100.0000
2023-05-08T02:10:14.362Z,100.0000
2023-05-08T02:12:14.492Z,100.0000
2023-05-08T02:13:16.308Z,100.0000
2023-05-08T02:14:16.963Z,100.0000
2023-05-08T02:15:18.312Z,100.0000
2023-05-08T02:16:19.426Z,100.0000
2023-05-08T02:25:29.223Z,100.0000
2023-05-08T02:26:29.866Z,100.0000
2023-05-08T02:27:30.369Z,100.0000
2023-05-08T02:28:31.273Z,100.0000
2023-05-08T02:29:32.291Z,100.0000
2023-05-08T02:30:32.579Z,100.0000
2023-05-08T02:31:33.690Z,100.0000
2023-05-08T02:32:34.477Z,100.0000
2023-05-08T02:33:35.140Z,100.0000
2023-05-08T02:34:35.223Z,100.0000
2023-05-08T02:35:35.171Z,100.0000
2023-05-08T02:36:35.228Z,100.0000
2023-05-08T02:37:36.139Z,100.0000
2023-05-08T02:38:38.683Z,100.0000
2023-05-08T02:39:38.625Z,100.0000
2023-05-08T02:40:39.842Z,100.0000
2023-05-08T02:41:40.094Z,100.0000
2023-05-08T02:42:41.294Z,100.0000
2023-05-08T02:43:43.443Z,100.0000
2023-05-08T02:44:43.616Z,100.0000
2023-05-08T02:45:44.005Z,100.0000
2023-05-08T02:46:45.254Z,100.0000
2023-05-08T02:47:44.869Z,100.0000
2023-05-08T02:48:45.407Z,100.0000
2023-05-08T02:49:46.257Z,100.0000
2023-05-08T02:50:47.894Z,100.0000
2023-05-08T02:51:48.649Z,100.0000
2023-05-08T02:52:48.295Z,100.0000
2023-05-08T02:53:49.569Z,100.0000
2023-05-08T02:54:49.846Z,100.0000
2023-05-08T02:55:50.090Z,100.0000
2023-05-08T02:56:50.359Z,100.0000
2023-05-08T02:57:51.005Z,100.0000
2023-05-08T02:58:51.917Z,100.0000
2023-05-08T02:59:52.680Z,100.0000
2023-05-08T03:00:52.719Z,100.0000
2023-05-08T03:01:53.836Z,100.0000
2023-05-08T03:02:53.971Z,100.0000
2023-05-08T03:03:55.054Z,100.0000
2023-05-08T03:04:55.984Z,100.0000
2023-05-08T03:05:56.737Z,100.0000
2023-05-08T03:06:57.400Z,100.0000
2023-05-08T03:07:57.951Z,100.0000
2023-05-08T03:08:58.009Z,100.0000
2023-05-08T03:09:58.931Z,100.0000
2023-05-08T03:10:59.358Z,100.0000
2023-05-08T03:11:59.574Z,100.0000
2023-05-08T03:13:00.292Z,100.0000
2023-05-08T03:14:01.274Z,100.0000
2023-05-08T03:19:04.661Z,100.0000
2023-05-08T03:20:04.836Z,100.0000
2023-05-08T03:21:04.894Z,100.0000
2023-05-08T03:22:06.008Z,100.0000
2023-05-08T03:23:07.490Z,100.0000
2023-05-08T03:24:07.849Z,100.0000
2023-05-08T03:25:08.272Z,100.0000
2023-05-08T03:26:09.768Z,100.0000
2023-05-08T03:29:10.790Z,100.0000
2023-05-08T03:33:12.765Z,100.0000
2023-05-08T03:34:13.530Z,100.0000
2023-05-08T03:35:14.715Z,100.0000
2023-05-08T03:36:15.597Z,100.0000
2023-05-08T03:37:16.104Z,100.0000
2023-05-08T03:38:17.433Z,100.0000
2023-05-08T03:39:17.857Z,100.0000
2023-05-08T03:40:17.910Z,100.0000
2023-05-08T03:41:19.118Z,100.0000
2023-05-08T03:42:20.254Z,100.0000
2023-05-08T03:43:21.019Z,100.0000
2023-05-08T03:44:21.035Z,100.0000
2023-05-08T03:45:22.100Z,100.0000
2023-05-08T03:46:23.567Z,100.0000
2023-05-08T03:47:23.780Z,100.0000
2023-05-08T03:48:24.123Z,100.0000
2023-05-08T03:49:25.990Z,100.0000
2023-05-08T03:50:26.811Z,100.0000
2023-05-08T03:51:29.414Z,100.0000
2023-05-08T03:54:30.712Z,100.0000
2023-05-08T03:55:31.942Z,100.0000
2023-05-08T03:56:32.671Z,100.0000
2023-05-08T03:57:32.745Z,100.0000
2023-05-08T03:58:33.623Z,100.0000
2023-05-08T03:59:33.761Z,100.0000
2023-05-08T04:00:34.570Z,100.0000
2023-05-08T04:01:35.725Z,100.0000
2023-05-08T04:02:36.708Z,100.0000
2023-05-08T04:03:36.789Z,100.0000
2023-05-08T04:04:38.076Z,100.0000
2023-05-08T04:05:38.279Z,100.0000
2023-05-08T04:06:49.356Z,100.0000
2023-05-08T04:07:43.330Z,100.0000
2023-05-08T04:09:43.083Z,100.0000
2023-05-08T04:10:44.664Z,100.0000
2023-05-08T04:12:44.413Z,100.0000
2023-05-08T04:13:45.905Z,100.0000
2023-05-08T04:14:47.007Z,100.0000
2023-05-08T04:15:48.049Z,100.0000
2023-05-08T04:16:50.156Z,100.0000
2023-05-08T04:17:50.199Z,100.0000
2023-05-08T04:18:50.564Z,100.0000
2023-05-08T04:19:51.257Z,100.0000
2023-05-08T04:21:51.643Z,100.0000
2023-05-08T04:23:52.581Z,100.0000
2023-05-08T04:24:52.830Z,100.0000
2023-05-08T04:25:53.865Z,100.0000
2023-05-08T04:27:54.134Z,100.0000
2023-05-08T04:29:55.512Z,100.0000
2023-05-08T04:30:55.940Z,100.0000
2023-05-08T04:31:56.794Z,100.0000
2023-05-08T04:32:57.761Z,100.0000
2023-05-08T04:33:57.830Z,100.0000
2023-05-08T04:34:58.767Z,100.0000
2023-05-08T04:37:00.272Z,100.0000
2023-05-08T04:39:01.081Z,100.0000
2023-05-08T04:41:01.242Z,100.0000
2023-05-08T04:43:02.139Z,100.0000
2023-05-08T04:44:02.888Z,100.0000
2023-05-08T04:45:05.278Z,100.0000
2023-05-08T04:46:06.933Z,100.0000
2023-05-08T04:48:07.766Z,100.0000
2023-05-08T04:49:09.453Z,100.0000
2023-05-08T04:50:10.049Z,100.0000
2023-05-08T04:51:10.228Z,100.0000
2023-05-08T04:52:11.487Z,100.0000
2023-05-08T04:53:12.432Z,100.0000
2023-05-08T04:54:12.685Z,100.0000
2023-05-08T04:55:13.963Z,100.0000
2023-05-08T04:57:13.879Z,100.0000
2023-05-08T04:59:16.060Z,100.0000
2023-05-08T05:00:15.456Z,100.0000
2023-05-08T05:01:15.926Z,100.0000
2023-05-08T05:02:17.095Z,100.0000
2023-05-08T05:03:17.651Z,100.0000
2023-05-08T05:04:18.948Z,100.0000
2023-05-08T05:05:21.007Z,100.0000
2023-05-08T05:06:28.524Z,100.0000
2023-05-08T05:07:22.440Z,100.0000
2023-05-08T05:09:13.086Z,100.0000
2023-05-08T05:11:14.521Z,100.0000
2023-05-08T05:13:15.221Z,100.0000
2023-05-08T05:15:15.799Z,100.0000
2023-05-08T05:17:16.906Z,100.0000
2023-05-08T05:19:17.834Z,100.0000
2023-05-08T05:20:18.769Z,99.9991
2023-05-08T05:21:19.911Z,99.9955
2023-05-08T05:22:20.576Z,99.9910
2023-05-08T05:23:21.850Z,99.9719
2023-05-08T05:25:22.036Z,99.9396
2023-05-08T05:26:22.397Z,99.9232
2023-05-08T05:27:23.503Z,99.9107
2023-05-08T05:28:23.684Z,99.8937
2023-05-08T05:29:24.820Z,99.8809
2023-05-08T05:30:25.465Z,99.8717
2023-05-08T05:31:27.418Z,99.8484
2023-05-08T05:32:27.406Z,99.8203
2023-05-08T05:33:28.315Z,99.8173
2023-05-08T05:34:29.664Z,99.8042
2023-05-08T05:36:30.530Z,99.7893
2023-05-08T05:38:30.389Z,99.7890
2023-05-08T05:39:30.885Z,99.7514
2023-05-08T05:40:32.230Z,99.7123
2023-05-08T05:42:33.051Z,99.6935
2023-05-08T05:44:33.312Z,99.7128
2023-05-08T05:45:36.690Z,99.7071
2023-05-08T05:46:37.403Z,99.7078
2023-05-08T05:47:38.515Z,99.6916
2023-05-08T05:48:38.746Z,99.6814
2023-05-08T05:49:40.871Z,99.6646
2023-05-08T05:51:41.278Z,99.6637
2023-05-08T05:52:42.943Z,99.6604
2023-05-08T05:53:43.803Z,99.6669
2023-05-08T05:56:45.774Z,99.6929
2023-05-08T05:59:47.109Z,99.7345
2023-05-08T06:00:47.732Z,99.7463
2023-05-08T06:01:47.804Z,99.7402
2023-05-08T06:02:49.041Z,99.7308
2023-05-08T06:03:49.485Z,99.7207
2023-05-08T06:04:50.317Z,99.7140
2023-05-08T06:05:50.366Z,99.7022
2023-05-08T06:06:51.396Z,99.6920
2023-05-08T06:07:51.978Z,99.6941
2023-05-08T06:08:53.440Z,99.6941
2023-05-08T06:09:53.702Z,99.6944
2023-05-08T06:10:54.550Z,99.6924
2023-05-08T06:11:55.529Z,99.6817
2023-05-08T06:12:55.979Z,99.6323
2023-05-08T06:13:57.094Z,99.6042
2023-05-08T06:14:57.727Z,99.5778
2023-05-08T06:16:02.711Z,99.5518
2023-05-08T06:16:58.968Z,99.5459
2023-05-08T06:17:59.759Z,99.5440
2023-05-08T06:19:00.511Z,99.5384
2023-05-08T06:20:00.824Z,99.5249
2023-05-08T06:21:01.917Z,99.5148
2023-05-08T06:22:03.728Z,99.5126
2023-05-08T06:23:04.308Z,99.5010
2023-05-08T06:24:04.948Z,99.4747
2023-05-08T06:25:06.130Z,99.4701
2023-05-08T06:26:07.298Z,99.4784
2023-05-08T06:27:07.664Z,99.4897
2023-05-08T06:28:08.012Z,99.5001
2023-05-08T06:29:08.244Z,99.5113
2023-05-08T06:30:08.425Z,99.5255
2023-05-08T06:31:09.009Z,99.5298
2023-05-08T06:32:09.554Z,99.5257
2023-05-08T06:33:10.291Z,99.5173
2023-05-08T06:34:10.880Z,99.5164
2023-05-08T06:35:11.089Z,99.5157
2023-05-08T06:36:11.177Z,99.5160
2023-05-08T06:37:11.358Z,99.5129
2023-05-08T06:38:11.483Z,99.5204
2023-05-08T06:39:11.726Z,99.5187
2023-05-08T06:40:13.084Z,99.5175
2023-05-08T06:41:15.184Z,99.5079
2023-05-08T06:42:14.122Z,99.4901
2023-05-08T06:43:14.423Z,99.4633
2023-05-08T06:44:14.556Z,99.4477
2023-05-08T06:45:16.100Z,99.4352
2023-05-08T06:46:15.826Z,99.4248
2023-05-08T06:47:16.507Z,99.4232
2023-05-08T06:48:17.093Z,99.4121
2023-05-08T06:49:17.556Z,99.4055
2023-05-08T06:50:17.861Z,99.4048
2023-05-08T06:51:18.171Z,99.4087
2023-05-08T06:52:18.361Z,99.4107
2023-05-08T06:53:18.470Z,99.4031
2023-05-08T06:54:18.552Z,99.4056
2023-05-08T06:55:19.502Z,99.4041
2023-05-08T06:56:19.697Z,99.4048
2023-05-08T06:57:20.089Z,99.4034
2023-05-08T06:58:20.295Z,99.4022
2023-05-08T06:59:21.099Z,99.3987
2023-05-08T07:00:21.511Z,99.4020
2023-05-08T07:01:21.783Z,99.3813
2023-05-08T07:02:22.590Z,99.3428
2023-05-08T07:03:23.210Z,99.3154
2023-05-08T07:04:23.571Z,99.2780
2023-05-08T07:05:24.728Z,99.2465
2023-05-08T07:06:24.908Z,99.2240
2023-05-08T07:07:25.283Z,99.2353
2023-05-08T07:08:25.985Z,99.2307
2023-05-08T07:09:26.428Z,99.2355
2023-05-08T07:10:26.811Z,99.2256
2023-05-08T07:11:26.927Z,99.1954
2023-05-08T07:12:27.249Z,99.1529
2023-05-08T07:13:28.249Z,99.1368
2023-05-08T07:14:28.758Z,99.0780
2023-05-08T07:15:30.142Z,99.0268
2023-05-08T07:16:31.280Z,98.9637
2023-05-08T07:17:32.026Z,98.8992
2023-05-08T07:18:32.329Z,98.8479
2023-05-08T07:19:33.191Z,98.7865
2023-05-08T07:20:33.753Z,98.6735
2023-05-08T07:21:34.110Z,98.4897
2023-05-08T07:22:34.441Z,98.3394
2023-05-08T07:23:34.693Z,98.2837
2023-05-08T07:24:34.781Z,98.2208
2023-05-08T07:25:35.002Z,98.0986
2023-05-08T07:26:35.014Z,97.9870
2023-05-08T07:27:35.202Z,97.9279
2023-05-08T07:28:35.336Z,97.8578
2023-05-08T07:29:35.717Z,97.8213
2023-05-08T07:30:35.797Z,97.7596
2023-05-08T07:31:36.255Z,97.6600
2023-05-08T07:32:36.759Z,97.5508
2023-05-08T07:33:37.108Z,97.5475
2023-05-08T07:34:37.397Z,97.5632
2023-05-08T07:35:38.678Z,97.4740
2023-05-08T07:36:38.930Z,97.4158
2023-05-08T07:37:55.599Z,97.3997
2023-05-08T07:39:18.845Z,97.3745
2023-05-08T07:40:11.338Z,97.2786
2023-05-08T07:41:11.519Z,97.2108
2023-05-08T07:42:12.671Z,97.1360
2023-05-08T07:43:13.225Z,96.9520
2023-05-08T07:44:13.674Z,96.9096
2023-05-08T07:45:14.613Z,96.8903
2023-05-08T07:46:14.515Z,96.8150
2023-05-08T07:47:15.613Z,96.7430
2023-05-08T07:48:21.125Z,96.7106
2023-05-08T07:49:20.947Z,96.5728
2023-05-08T07:51:20.062Z,96.3164
2023-05-08T07:52:20.973Z,96.2962
2023-05-08T07:53:22.809Z,96.1490
2023-05-08T07:54:26.718Z,96.1519
2023-05-08T07:56:25.049Z,95.6721
2023-05-08T07:57:24.952Z,95.5193
2023-05-08T07:58:25.871Z,95.5570
2023-05-08T07:59:27.264Z,95.3608
2023-05-08T08:00:28.316Z,95.2913
2023-05-08T08:02:29.739Z,95.3088
2023-05-08T08:04:31.266Z,95.2512
2023-05-08T08:05:32.657Z,94.9835
2023-05-08T08:06:32.596Z,94.8401
2023-05-08T08:08:34.097Z,93.9960
2023-05-08T08:09:34.148Z,93.6663
2023-05-08T08:10:34.119Z,93.5971
2023-05-08T08:13:37.299Z,94.0993
2023-05-08T08:15:37.331Z,93.9046
2023-05-08T08:16:37.778Z,93.9962
2023-05-08T08:17:38.118Z,93.9401
2023-05-08T08:18:39.442Z,93.9006
2023-05-08T08:19:40.049Z,93.3858
2023-05-08T08:20:41.010Z,93.0172
2023-05-08T08:21:41.081Z,92.7860
2023-05-08T08:22:41.424Z,92.0788
2023-05-08T08:23:41.877Z,92.1303
2023-05-08T08:24:42.252Z,91.8005
2023-05-08T08:25:43.167Z,92.1515
2023-05-08T08:26:43.569Z,91.4003
2023-05-08T08:27:43.819Z,90.8507
2023-05-08T08:28:44.219Z,90.4841
2023-05-08T08:29:44.673Z,90.3618
2023-05-08T08:30:44.909Z,90.5405
2023-05-08T08:31:45.623Z,90.9012
2023-05-08T08:32:46.798Z,91.5718
2023-05-08T08:33:47.708Z,91.6352
2023-05-08T08:34:48.137Z,90.2887
2023-05-08T08:35:48.616Z,88.7185
2023-05-08T08:36:48.909Z,89.2218
2023-05-08T08:37:49.115Z,88.6720
2023-05-08T08:38:50.225Z,88.9066
2023-05-08T08:39:50.195Z,87.7843
2023-05-08T08:40:50.575Z,87.4645
2023-05-08T08:41:50.810Z,89.4762
2023-05-08T08:42:51.116Z,89.2550
2023-05-08T08:43:51.336Z,88.2260
2023-05-08T08:44:51.886Z,88.3401
2023-05-08T08:45:52.092Z,88.6064
2023-05-08T08:46:52.364Z,88.8937
2023-05-08T08:47:53.428Z,88.6615
2023-05-08T08:48:53.678Z,89.3344
2023-05-08T08:49:54.054Z,86.7582
2023-05-08T08:50:55.310Z,86.3662
2023-05-08T08:51:55.611Z,86.9520
2023-05-08T08:52:55.968Z,88.1428
2023-05-08T08:53:56.327Z,88.1833
2023-05-08T08:54:56.618Z,87.2716
2023-05-08T08:55:57.083Z,87.4172
2023-05-08T08:56:57.605Z,87.1865
2023-05-08T08:57:57.766Z,87.2133
2023-05-08T08:58:58.224Z,87.1146
2023-05-08T08:59:58.831Z,87.2472
2023-05-08T09:00:59.478Z,87.3753
2023-05-08T09:02:00.236Z,86.7581
2023-05-08T09:03:01.391Z,85.9779
2023-05-08T09:04:01.359Z,85.9744
2023-05-08T09:05:02.123Z,86.3603
2023-05-08T09:06:03.238Z,86.0163
2023-05-08T09:07:03.910Z,85.7616
2023-05-08T09:08:04.108Z,85.9620
2023-05-08T09:09:04.543Z,85.4681
2023-05-08T09:10:04.864Z,85.5266
2023-05-08T09:11:05.153Z,84.8741
2023-05-08T09:12:05.790Z,84.8467
2023-05-08T09:13:06.135Z,84.8933
2023-05-08T09:14:07.361Z,85.3962
2023-05-08T09:15:07.856Z,85.2813
2023-05-08T09:16:09.466Z,86.0767
2023-05-08T09:17:10.717Z,85.3561
2023-05-08T09:18:11.282Z,85.0976
2023-05-08T09:19:11.784Z,85.3816
2023-05-08T09:20:12.167Z,86.2756
2023-05-08T09:21:12.333Z,85.2553
2023-05-08T09:22:12.589Z,85.8163
2023-05-08T09:23:12.912Z,85.1888
2023-05-08T09:24:13.386Z,85.0474
2023-05-08T09:25:14.034Z,85.1112
2023-05-08T09:26:14.302Z,84.7934
2023-05-08T09:27:14.926Z,84.1832
2023-05-08T09:28:15.368Z,84.2341
2023-05-08T09:29:15.802Z,84.7885
2023-05-08T09:30:16.716Z,83.9081
2023-05-08T09:31:17.000Z,83.3073
2023-05-08T09:32:17.422Z,83.9646
2023-05-08T09:33:18.069Z,83.9474
2023-05-08T09:34:19.225Z,84.0890
2023-05-08T09:35:19.421Z,84.8173
2023-05-08T09:36:19.926Z,83.0247
2023-05-08T09:37:20.282Z,82.5106
2023-05-08T09:38:20.464Z,83.9236
2023-05-08T09:39:20.861Z,83.3756
2023-05-08T09:40:21.269Z,83.2998
2023-05-08T09:41:22.013Z,83.7160
2023-05-08T09:42:22.273Z,83.5813
2023-05-08T09:43:22.779Z,83.6691
2023-05-08T09:44:23.251Z,83.9920
2023-05-08T09:45:24.275Z,83.2163
2023-05-08T09:46:24.857Z,84.5419
2023-05-08T09:47:25.897Z,85.2088
2023-05-08T09:48:26.530Z,85.1080
2023-05-08T09:49:26.905Z,85.0088
2023-05-08T09:50:28.116Z,85.6267
2023-05-08T09:51:28.755Z,85.9349
2023-05-08T09:52:29.144Z,85.3988
2023-05-08T09:53:29.624Z,85.7929
2023-05-08T09:54:30.016Z,86.0504
2023-05-08T09:55:30.295Z,85.9402
2023-05-08T09:56:30.748Z,86.1139
2023-05-08T09:57:31.161Z,86.2998
2023-05-08T09:58:31.963Z,86.2275
2023-05-08T09:59:34.250Z,86.3084
2023-05-08T10:00:32.756Z,85.2076
2023-05-08T10:01:33.338Z,84.8269
2023-05-08T10:02:33.974Z,84.9086
2023-05-08T10:03:35.101Z,84.3384
2023-05-08T10:04:36.010Z,83.9303
2023-05-08T10:05:36.574Z,83.3834
2023-05-08T10:06:36.848Z,83.4042
2023-05-08T10:07:37.307Z,82.4069
2023-05-08T10:08:37.786Z,81.5711
2023-05-08T10:09:49.714Z,81.5411
2023-05-08T10:10:39.331Z,82.7078
2023-05-08T10:11:39.794Z,82.6383
2023-05-08T10:12:40.038Z,81.7663
2023-05-08T10:13:40.996Z,81.1783
2023-05-08T10:14:43.123Z,81.0562
2023-05-08T10:15:43.078Z,80.8448
2023-05-08T10:16:43.907Z,81.3820
2023-05-08T10:17:44.824Z,81.9523
2023-05-08T10:18:45.187Z,81.4401
2023-05-08T10:19:45.725Z,81.0037
2023-05-08T10:20:46.714Z,81.4255
2023-05-08T10:21:47.193Z,81.6780
2023-05-08T10:22:47.427Z,80.6127
2023-05-08T10:23:47.806Z,81.3555
2023-05-08T10:24:48.129Z,80.6104
2023-05-08T10:25:48.606Z,80.4940
2023-05-08T10:27:05.109Z,81.8089
2023-05-08T10:27:51.138Z,84.0818
2023-05-08T10:28:51.450Z,82.4702
2023-05-08T10:29:51.938Z,82.2030
2023-05-08T10:30:52.376Z,81.9150
2023-05-08T10:31:53.249Z,82.0882
2023-05-08T10:32:53.887Z,82.0208
2023-05-08T10:33:54.463Z,82.3739
2023-05-08T10:34:54.594Z,82.7416
2023-05-08T10:35:54.905Z,82.5236
2023-05-08T10:36:55.890Z,81.3927
2023-05-08T10:37:56.412Z,81.2007
2023-05-08T10:38:56.879Z,80.0339
2023-05-08T10:39:57.181Z,80.5841
2023-05-08T10:40:57.785Z,81.0157
2023-05-08T10:41:58.316Z,81.0043
2023-05-08T10:42:58.728Z,80.6151
2023-05-08T10:44:01.072Z,81.4366
2023-05-08T10:45:00.047Z,81.1630
2023-05-08T10:46:00.712Z,81.3307
2023-05-08T10:47:01.387Z,80.6596
2023-05-08T10:48:02.083Z,79.8985
2023-05-08T10:49:02.745Z,79.2192
2023-05-08T10:50:02.943Z,78.9123
2023-05-08T10:51:04.078Z,78.2705
2023-05-08T10:52:04.295Z,77.7025
2023-05-08T10:53:04.856Z,76.0089
2023-05-08T10:54:05.311Z,76.2456
2023-05-08T10:55:05.976Z,76.4179
2023-05-08T10:56:06.164Z,76.4252
2023-05-08T10:58:26.735Z,76.1070
2023-05-08T10:59:27.649Z,73.9215
2023-05-08T11:00:28.400Z,74.3996
2023-05-08T11:01:28.669Z,73.4796
2023-05-08T11:02:29.710Z,74.2507
2023-05-08T11:03:32.627Z,74.5618
2023-05-08T11:04:31.487Z,74.7914
2023-05-08T11:05:32.157Z,75.3349
2023-05-08T11:06:32.626Z,76.2713
2023-05-08T11:07:33.299Z,76.5212
2023-05-08T11:08:33.825Z,76.7328
2023-05-08T11:09:34.179Z,77.8386
2023-05-08T11:10:34.944Z,77.3746
2023-05-08T11:11:35.611Z,76.7156
2023-05-08T11:12:36.177Z,75.8265
2023-05-08T11:13:37.138Z,74.6487
2023-05-08T11:14:37.536Z,74.3370
2023-05-08T11:15:38.120Z,74.8804
2023-05-08T11:16:39.130Z,75.2147
2023-05-08T11:17:40.321Z,75.2954
2023-05-08T11:18:49.549Z,74.7302
2023-05-08T11:19:46.403Z,76.0531
2023-05-08T11:20:47.449Z,75.3234
2023-05-08T11:21:48.006Z,75.3559
2023-05-08T11:22:48.585Z,76.6286
2023-05-08T11:23:48.814Z,76.6856
2023-05-08T11:24:49.342Z,77.1128
2023-05-08T11:25:49.878Z,77.5590
2023-05-08T11:26:50.434Z,78.2745
2023-05-08T11:27:50.969Z,78.4214
2023-05-08T11:28:51.539Z,78.7374
2023-05-08T11:29:52.193Z,77.7932
2023-05-08T11:30:52.982Z,77.2051
2023-05-08T11:31:54.107Z,77.5034
2023-05-08T11:32:54.970Z,78.0225
2023-05-08T11:33:55.584Z,78.1093
2023-05-08T11:34:56.923Z,79.1600
2023-05-08T11:35:57.582Z,78.7234
2023-05-08T11:36:58.182Z,78.7003
2023-05-08T11:37:58.609Z,79.0917
2023-05-08T11:38:59.229Z,79.0580
2023-05-08T11:39:59.862Z,78.4508
2023-05-08T11:41:00.563Z,77.6987
2023-05-08T11:42:00.972Z,77.6290
2023-05-08T11:43:01.481Z,77.8030
2023-05-08T11:44:02.042Z,77.8546
2023-05-08T11:45:02.922Z,78.2508
2023-05-08T11:46:03.515Z,77.9697
2023-05-08T11:47:04.614Z,75.5318
2023-05-08T11:48:05.617Z,75.4216
2023-05-08T11:49:06.173Z,76.2643
2023-05-08T11:50:06.376Z,76.2303
2023-05-08T11:51:06.986Z,74.8197
2023-05-08T11:52:07.562Z,74.9626
2023-05-08T11:53:08.162Z,75.6091
2023-05-08T11:54:08.540Z,76.4752
2023-05-08T11:55:08.499Z,76.1052
2023-05-08T11:56:09.097Z,76.7658
2023-05-08T11:57:09.595Z,76.9166
2023-05-08T11:58:09.871Z,76.3365
2023-05-08T11:59:10.612Z,76.5109
2023-05-08T12:00:11.617Z,74.9287
2023-05-08T12:01:11.701Z,75.0187
2023-05-08T12:02:12.115Z,75.3965
2023-05-08T12:03:12.738Z,75.0803
2023-05-08T12:04:13.593Z,75.2463
2023-05-08T12:05:14.202Z,75.0784
2023-05-08T12:06:14.991Z,75.2124
2023-05-08T12:07:15.622Z,74.5517
2023-05-08T12:08:16.192Z,74.7651
2023-05-08T12:09:17.207Z,73.6539
2023-05-08T12:10:18.156Z,72.4265
2023-05-08T12:11:17.483Z,73.1015
2023-05-08T12:12:18.804Z,73.5281
2023-05-08T12:13:20.196Z,73.1372
2023-05-08T12:14:20.383Z,73.5522
2023-05-08T12:15:21.465Z,73.8061
2023-05-08T12:16:23.032Z,73.7606
2023-05-08T12:17:23.409Z,73.0699
2023-05-08T12:18:23.805Z,72.4791
2023-05-08T12:19:24.623Z,72.0824
2023-05-08T12:20:25.294Z,72.0979
2023-05-08T12:21:26.521Z,72.2749
2023-05-08T12:22:27.596Z,71.6663
2023-05-08T12:23:28.842Z,70.4977
2023-05-08T12:24:29.935Z,67.3340
2023-05-08T12:25:30.420Z,66.0136
2023-05-08T12:26:31.690Z,66.7420
2023-05-08T12:27:32.762Z,66.6420
2023-05-08T12:28:33.980Z,66.4156
2023-05-08T12:29:34.921Z,66.3279
2023-05-08T12:33:36.159Z,64.4955
2023-05-08T12:34:37.438Z,64.1505
2023-05-08T12:35:38.522Z,61.5954
2023-05-08T12:36:39.683Z,62.3117
2023-05-08T12:37:40.859Z,60.6539
2023-05-08T12:38:41.967Z,60.8147
2023-05-08T12:39:43.157Z,62.7155
2023-05-08T12:40:43.409Z,64.3278
2023-05-08T12:41:44.668Z,63.9931
2023-05-08T12:42:44.705Z,66.2549
2023-05-08T12:43:45.936Z,67.2572
2023-05-08T12:44:47.092Z,69.1093
2023-05-08T12:45:48.262Z,69.7476
2023-05-08T13:03:02.634Z,81.4421
2023-05-08T13:04:03.681Z,82.1517
2023-05-08T13:05:03.670Z,83.4026
2023-05-08T13:06:04.844Z,84.5231
2023-05-08T13:07:06.141Z,84.8249
2023-05-08T13:08:07.353Z,85.6953
2023-05-08T13:09:08.586Z,86.2259
2023-05-08T13:10:09.974Z,86.4396
2023-05-08T13:11:10.160Z,86.9865
2023-05-08T13:12:11.429Z,87.3335
2023-05-08T13:13:11.444Z,87.5412
2023-05-08T13:14:11.497Z,88.4378
2023-05-08T13:15:11.689Z,88.9344
2023-05-08T13:16:11.890Z,89.3988
2023-05-08T13:17:12.113Z,89.6029
2023-05-08T13:18:13.736Z,89.7688
2023-05-08T13:19:14.027Z,90.0055
2023-05-08T13:20:14.198Z,89.9979
2023-05-08T13:21:14.435Z,90.0211
2023-05-08T13:22:14.381Z,89.7354
2023-05-08T13:23:15.670Z,90.2137
2023-05-08T13:24:16.990Z,90.4743
2023-05-08T13:25:18.249Z,90.5869
2023-05-08T13:26:19.563Z,90.0730
2023-05-08T13:27:20.701Z,89.8517
2023-05-08T13:28:22.212Z,89.5489
2023-05-08T13:29:23.459Z,89.7279
2023-05-08T13:30:23.598Z,88.5829
2023-05-08T13:31:23.604Z,88.5205
2023-05-08T13:32:23.924Z,89.3071
2023-05-08T13:33:24.042Z,89.7585
2023-05-08T13:34:25.214Z,89.9585
2023-05-08T13:35:26.328Z,90.2863
2023-05-08T13:36:27.538Z,90.5009
2023-05-08T13:37:28.807Z,90.8685
2023-05-08T13:38:29.930Z,90.5829
2023-05-08T13:39:31.135Z,90.5748
2023-05-08T13:40:32.372Z,91.1807
2023-05-08T13:41:33.558Z,91.1363
2023-05-08T13:42:34.765Z,91.1269
2023-05-08T13:43:35.848Z,91.1203
2023-05-08T13:44:37.025Z,91.0143
2023-05-08T13:45:37.825Z,91.1658
2023-05-08T13:46:38.002Z,91.6371